sensor_id;sensor_type;location;lat;lon;timestamp;temperature;humidity
35593;DHT22;64447;52.140;5.602;2023-11-19T00:02:14;13.40;99.90
35593;DHT22;64447;52.140;5.602;2023-11-19T00:04:40;13.50;99.90
35593;DHT22;64447;52.140;5.602;2023-11-19T00:07:06;13.40;99.90
35593;DHT22;64447;52.140;5.602;2023-11-19T00:09:36;13.90;99.90
35593;DHT22;64447;52.140;5.602;2023-11-19T00:12:03;13.80;99.90
35593;DHT22;64447;52.140;5.602;2023-11-19T00:14:30;13.50;99.90
35593;DHT22;64447;52.140;5.602;2023-11-19T00:16:56;13.60;99.90
35593;DHT22;64447;52.140;5.602;2023-11-19T00:19:21;13.40;99.90
35593;DHT22;64447;52.140;5.602;2023-11-19T00:21:47;13.40;99.90
35593;DHT22;64447;52.140;5.602;2023-11-19T00:24:13;13.40;99.90
35593;DHT22;64447;52.140;5.602;2023-11-19T00:26:42;13.50;99.90
35593;DHT22;64447;52.140;5.602;2023-11-19T00:29:07;13.50;99.90
35593;DHT22;64447;52.140;5.602;2023-11-19T00:31:33;13.40;99.90
35593;DHT22;64447;52.140;5.602;2023-11-19T00:33:59;13.70;99.90
35593;DHT22;64447;52.140;5.602;2023-11-19T00:36:24;13.50;99.90
35593;DHT22;64447;52.140;5.602;2023-11-19T00:38:51;13.40;99.90
35593;DHT22;64447;52.140;5.602;2023-11-19T00:41:18;13.50;99.90
35593;DHT22;64447;52.140;5.602;2023-11-19T00:43:44;13.50;99.90
35593;DHT22;64447;52.140;5.602;2023-11-19T00:46:10;13.40;99.90
35593;DHT22;64447;52.140;5.602;2023-11-19T00:48:39;13.40;99.90
35593;DHT22;64447;52.140;5.602;2023-11-19T00:51:05;13.40;99.90
35593;DHT22;64447;52.140;5.602;2023-11-19T00:53:31;14.30;99.90
35593;DHT22;64447;52.140;5.602;2023-11-19T00:55:57;13.40;99.90
35593;DHT22;64447;52.140;5.602;2023-11-19T00:58:23;13.30;99.90
35593;DHT22;64447;52.140;5.602;2023-11-19T01:00:49;13.40;99.90
35593;DHT22;64447;52.140;5.602;2023-11-19T01:03:14;13.40;99.90
35593;DHT22;64447;52.140;5.602;2023-11-19T01:05:41;13.40;99.90
35593;DHT22;64447;52.140;5.602;2023-11-19T01:08:07;13.40;99.90
35593;DHT22;64447;52.140;5.602;2023-11-19T01:10:33;13.40;99.90
35593;DHT22;64447;52.140;5.602;2023-11-19T01:12:59;13.40;99.90
35593;DHT22;64447;52.140;5.602;2023-11-19T01:15:25;13.40;99.90
35593;DHT22;64447;52.140;5.602;2023-11-19T01:17:51;13.60;99.90
35593;DHT22;64447;52.140;5.602;2023-11-19T01:20:17;13.40;99.90
35593;DHT22;64447;52.140;5.602;2023-11-19T01:22:43;13.40;99.90
35593;DHT22;64447;52.140;5.602;2023-11-19T01:25:09;13.40;99.90
35593;DHT22;64447;52.140;5.602;2023-11-19T01:27:34;13.40;99.90
35593;DHT22;64447;52.140;5.602;2023-11-19T01:30:01;13.40;99.90
35593;DHT22;64447;52.140;5.602;2023-11-19T01:32:31;13.40;99.90
35593;DHT22;64447;52.140;5.602;2023-11-19T01:34:57;13.50;99.90
35593;DHT22;64447;52.140;5.602;2023-11-19T01:37:22;13.50;99.90
35593;DHT22;64447;52.140;5.602;2023-11-19T01:39:48;13.40;99.90
35593;DHT22;64447;52.140;5.602;2023-11-19T01:42:14;13.40;99.90
35593;DHT22;64447;52.140;5.602;2023-11-19T01:44:41;13.40;99.90
35593;DHT22;64447;52.140;5.602;2023-11-19T01:47:07;13.40;99.90
35593;DHT22;64447;52.140;5.602;2023-11-19T01:49:33;13.40;99.90
35593;DHT22;64447;52.140;5.602;2023-11-19T01:51:59;13.40;99.90
35593;DHT22;64447;52.140;5.602;2023-11-19T01:54:25;13.40;99.90
35593;DHT22;64447;52.140;5.602;2023-11-19T01:56:52;13.40;99.90
35593;DHT22;64447;52.140;5.602;2023-11-19T01:59:18;13.60;99.90
35593;DHT22;64447;52.140;5.602;2023-11-19T02:01:52;13.40;99.90
35593;DHT22;64447;52.140;5.602;2023-11-19T02:04:18;13.40;99.90
35593;DHT22;64447;52.140;5.602;2023-11-19T02:06:45;13.50;99.90
35593;DHT22;64447;52.140;5.602;2023-11-19T02:09:12;13.50;99.90
35593;DHT22;64447;52.140;5.602;2023-11-19T02:11:41;13.40;99.90
35593;DHT22;64447;52.140;5.602;2023-11-19T02:14:07;13.40;99.90
35593;DHT22;64447;52.140;5.602;2023-11-19T02:16:33;13.40;99.90
35593;DHT22;64447;52.140;5.602;2023-11-19T02:18:58;13.40;99.90
35593;DHT22;64447;52.140;5.602;2023-11-19T02:21:24;13.40;99.90
35593;DHT22;64447;52.140;5.602;2023-11-19T02:23:50;13.30;99.90
35593;DHT22;64447;52.140;5.602;2023-11-19T02:26:30;13.30;99.90
35593;DHT22;64447;52.140;5.602;2023-11-19T02:28:58;13.30;99.90
35593;DHT22;64447;52.140;5.602;2023-11-19T02:31:24;13.30;99.90
35593;DHT22;64447;52.140;5.602;2023-11-19T02:33:50;13.20;99.90
35593;DHT22;64447;52.140;5.602;2023-11-19T02:36:15;13.20;99.90
35593;DHT22;64447;52.140;5.602;2023-11-19T02:38:42;13.20;99.90
35593;DHT22;64447;52.140;5.602;2023-11-19T02:41:08;13.10;99.90
35593;DHT22;64447;52.140;5.602;2023-11-19T02:43:36;13.20;99.90
35593;DHT22;64447;52.140;5.602;2023-11-19T02:46:05;13.20;99.90
35593;DHT22;64447;52.140;5.602;2023-11-19T02:48:34;13.00;99.90
35593;DHT22;64447;52.140;5.602;2023-11-19T02:51:04;13.10;99.90
35593;DHT22;64447;52.140;5.602;2023-11-19T02:53:30;13.10;99.90
35593;DHT22;64447;52.140;5.602;2023-11-19T02:55:57;13.10;99.90
35593;DHT22;64447;52.140;5.602;2023-11-19T02:58:37;13.00;99.90
35593;DHT22;64447;52.140;5.602;2023-11-19T03:01:03;13.00;99.90
35593;DHT22;64447;52.140;5.602;2023-11-19T03:03:38;13.00;99.90
35593;DHT22;64447;52.140;5.602;2023-11-19T03:06:06;13.00;99.90
35593;DHT22;64447;52.140;5.602;2023-11-19T03:08:32;13.00;99.90
35593;DHT22;64447;52.140;5.602;2023-11-19T03:10:58;12.90;99.90
35593;DHT22;64447;52.140;5.602;2023-11-19T03:13:24;12.90;99.90
35593;DHT22;64447;52.140;5.602;2023-11-19T03:15:50;12.90;99.90
35593;DHT22;64447;52.140;5.602;2023-11-19T03:18:16;12.90;99.90
35593;DHT22;64447;52.140;5.602;2023-11-19T03:20:42;12.80;99.90
35593;DHT22;64447;52.140;5.602;2023-11-19T03:23:08;12.80;99.90
35593;DHT22;64447;52.140;5.602;2023-11-19T03:25:33;12.80;99.90
35593;DHT22;64447;52.140;5.602;2023-11-19T03:28:00;12.70;99.90
35593;DHT22;64447;52.140;5.602;2023-11-19T03:30:29;12.70;99.90
35593;DHT22;64447;52.140;5.602;2023-11-19T03:32:56;12.70;99.90
35593;DHT22;64447;52.140;5.602;2023-11-19T03:35:25;12.60;99.90
35593;DHT22;64447;52.140;5.602;2023-11-19T03:37:51;12.60;99.90
35593;DHT22;64447;52.140;5.602;2023-11-19T03:40:17;12.60;99.90
35593;DHT22;64447;52.140;5.602;2023-11-19T03:42:46;12.60;99.90
35593;DHT22;64447;52.140;5.602;2023-11-19T03:45:12;12.50;99.90
35593;DHT22;64447;52.140;5.602;2023-11-19T03:47:38;12.40;99.90
35593;DHT22;64447;52.140;5.602;2023-11-19T03:50:05;12.40;99.90
35593;DHT22;64447;52.140;5.602;2023-11-19T03:52:31;12.40;99.90
35593;DHT22;64447;52.140;5.602;2023-11-19T03:54:56;12.30;99.90
35593;DHT22;64447;52.140;5.602;2023-11-19T03:57:23;12.30;99.90
35593;DHT22;64447;52.140;5.602;2023-11-19T03:59:49;12.20;99.90
35593;DHT22;64447;52.140;5.602;2023-11-19T04:02:15;12.20;99.90
35593;DHT22;64447;52.140;5.602;2023-11-19T04:04:41;12.10;99.90
35593;DHT22;64447;52.140;5.602;2023-11-19T04:07:07;12.10;99.90
35593;DHT22;64447;52.140;5.602;2023-11-19T04:09:33;12.20;99.90
35593;DHT22;64447;52.140;5.602;2023-11-19T04:11:59;12.10;99.90
35593;DHT22;64447;52.140;5.602;2023-11-19T04:14:26;12.20;99.90
35593;DHT22;64447;52.140;5.602;2023-11-19T04:16:51;12.10;99.90
35593;DHT22;64447;52.140;5.602;2023-11-19T04:19:18;12.30;99.90
35593;DHT22;64447;52.140;5.602;2023-11-19T04:21:44;12.10;99.90
35593;DHT22;64447;52.140;5.602;2023-11-19T04:24:10;12.10;99.90
35593;DHT22;64447;52.140;5.602;2023-11-19T04:26:45;12.10;99.90
35593;DHT22;64447;52.140;5.602;2023-11-19T04:29:15;12.20;99.90
35593;DHT22;64447;52.140;5.602;2023-11-19T04:31:43;12.20;99.90
35593;DHT22;64447;52.140;5.602;2023-11-19T04:34:12;12.20;99.90
35593;DHT22;64447;52.140;5.602;2023-11-19T04:36:38;12.20;99.90
35593;DHT22;64447;52.140;5.602;2023-11-19T04:39:04;12.20;99.90
35593;DHT22;64447;52.140;5.602;2023-11-19T04:41:35;12.30;99.90
35593;DHT22;64447;52.140;5.602;2023-11-19T04:44:01;12.10;99.90
35593;DHT22;64447;52.140;5.602;2023-11-19T04:46:26;12.00;99.90
35593;DHT22;64447;52.140;5.602;2023-11-19T04:48:52;12.00;99.90
35593;DHT22;64447;52.140;5.602;2023-11-19T04:51:17;12.00;99.90
35593;DHT22;64447;52.140;5.602;2023-11-19T04:53:43;12.00;99.90
35593;DHT22;64447;52.140;5.602;2023-11-19T04:56:10;11.90;99.90
35593;DHT22;64447;52.140;5.602;2023-11-19T04:58:35;11.90;99.90
35593;DHT22;64447;52.140;5.602;2023-11-19T05:01:03;11.90;99.90
35593;DHT22;64447;52.140;5.602;2023-11-19T05:03:29;11.90;99.90
35593;DHT22;64447;52.140;5.602;2023-11-19T05:05:54;11.80;99.90
35593;DHT22;64447;52.140;5.602;2023-11-19T05:08:20;11.90;99.90
35593;DHT22;64447;52.140;5.602;2023-11-19T05:10:46;11.90;99.90
35593;DHT22;64447;52.140;5.602;2023-11-19T05:13:11;11.90;99.90
35593;DHT22;64447;52.140;5.602;2023-11-19T05:15:38;11.90;99.90
35593;DHT22;64447;52.140;5.602;2023-11-19T05:18:03;11.80;99.90
35593;DHT22;64447;52.140;5.602;2023-11-19T05:20:30;11.80;99.90
35593;DHT22;64447;52.140;5.602;2023-11-19T05:22:55;11.80;99.90
35593;DHT22;64447;52.140;5.602;2023-11-19T05:25:21;11.80;99.90
35593;DHT22;64447;52.140;5.602;2023-11-19T05:27:47;11.80;99.90
35593;DHT22;64447;52.140;5.602;2023-11-19T05:30:12;11.80;99.90
35593;DHT22;64447;52.140;5.602;2023-11-19T05:32:38;11.80;99.90
35593;DHT22;64447;52.140;5.602;2023-11-19T05:35:04;11.80;99.90
35593;DHT22;64447;52.140;5.602;2023-11-19T05:37:30;11.80;99.90
35593;DHT22;64447;52.140;5.602;2023-11-19T05:39:55;11.80;99.90
35593;DHT22;64447;52.140;5.602;2023-11-19T05:42:21;11.70;99.90
35593;DHT22;64447;52.140;5.602;2023-11-19T05:44:47;11.70;99.90
35593;DHT22;64447;52.140;5.602;2023-11-19T05:47:12;11.70;99.90
35593;DHT22;64447;52.140;5.602;2023-11-19T05:49:38;11.70;99.90
35593;DHT22;64447;52.140;5.602;2023-11-19T05:52:04;11.70;99.90
35593;DHT22;64447;52.140;5.602;2023-11-19T05:54:32;11.70;99.90
35593;DHT22;64447;52.140;5.602;2023-11-19T05:57:06;11.70;99.90
35593;DHT22;64447;52.140;5.602;2023-11-19T05:59:35;11.70;99.90
35593;DHT22;64447;52.140;5.602;2023-11-19T06:02:01;11.60;99.90
35593;DHT22;64447;52.140;5.602;2023-11-19T06:04:28;11.60;99.90
35593;DHT22;64447;52.140;5.602;2023-11-19T06:06:53;11.70;99.90
35593;DHT22;64447;52.140;5.602;2023-11-19T06:09:21;11.60;99.90
35593;DHT22;64447;52.140;5.602;2023-11-19T06:11:49;11.70;99.90
35593;DHT22;64447;52.140;5.602;2023-11-19T06:14:14;11.60;99.90
35593;DHT22;64447;52.140;5.602;2023-11-19T06:16:40;11.60;99.90
35593;DHT22;64447;52.140;5.602;2023-11-19T06:19:05;11.70;99.90
35593;DHT22;64447;52.140;5.602;2023-11-19T06:21:31;11.60;99.90
35593;DHT22;64447;52.140;5.602;2023-11-19T06:23:57;11.60;99.90
35593;DHT22;64447;52.140;5.602;2023-11-19T06:26:23;11.60;99.90
35593;DHT22;64447;52.140;5.602;2023-11-19T06:28:49;11.60;99.90
35593;DHT22;64447;52.140;5.602;2023-11-19T06:31:15;11.60;99.90
35593;DHT22;64447;52.140;5.602;2023-11-19T06:33:42;11.60;99.90
35593;DHT22;64447;52.140;5.602;2023-11-19T06:36:08;11.60;99.90
35593;DHT22;64447;52.140;5.602;2023-11-19T06:38:34;11.60;99.90
35593;DHT22;64447;52.140;5.602;2023-11-19T06:41:00;11.60;99.90
35593;DHT22;64447;52.140;5.602;2023-11-19T06:43:27;11.60;99.90
35593;DHT22;64447;52.140;5.602;2023-11-19T06:45:53;11.60;99.90
35593;DHT22;64447;52.140;5.602;2023-11-19T06:48:19;11.50;99.90
35593;DHT22;64447;52.140;5.602;2023-11-19T06:50:45;11.50;99.90
35593;DHT22;64447;52.140;5.602;2023-11-19T06:53:11;11.60;99.90
35593;DHT22;64447;52.140;5.602;2023-11-19T06:55:36;11.50;99.90
35593;DHT22;64447;52.140;5.602;2023-11-19T06:58:02;11.40;99.90
35593;DHT22;64447;52.140;5.602;2023-11-19T07:00:28;11.40;99.90
35593;DHT22;64447;52.140;5.602;2023-11-19T07:02:54;11.40;99.90
35593;DHT22;64447;52.140;5.602;2023-11-19T07:05:20;11.40;99.90
35593;DHT22;64447;52.140;5.602;2023-11-19T07:07:46;11.40;99.90
35593;DHT22;64447;52.140;5.602;2023-11-19T07:10:12;11.40;99.90
35593;DHT22;64447;52.140;5.602;2023-11-19T07:12:38;11.50;99.90
35593;DHT22;64447;52.140;5.602;2023-11-19T07:15:04;11.50;99.90
35593;DHT22;64447;52.140;5.602;2023-11-19T07:17:31;11.50;99.90
35593;DHT22;64447;52.140;5.602;2023-11-19T07:19:57;11.50;99.90
35593;DHT22;64447;52.140;5.602;2023-11-19T07:22:25;11.50;99.90
35593;DHT22;64447;52.140;5.602;2023-11-19T07:24:51;11.50;99.90
35593;DHT22;64447;52.140;5.602;2023-11-19T07:27:17;11.70;99.90
35593;DHT22;64447;52.140;5.602;2023-11-19T07:29:43;11.60;99.90
35593;DHT22;64447;52.140;5.602;2023-11-19T07:32:10;11.60;99.90
35593;DHT22;64447;52.140;5.602;2023-11-19T07:34:36;11.60;99.90
35593;DHT22;64447;52.140;5.602;2023-11-19T07:37:02;11.60;99.90
35593;DHT22;64447;52.140;5.602;2023-11-19T07:39:28;11.50;99.90
35593;DHT22;64447;52.140;5.602;2023-11-19T07:41:54;11.60;99.90
35593;DHT22;64447;52.140;5.602;2023-11-19T07:44:20;11.60;99.90
35593;DHT22;64447;52.140;5.602;2023-11-19T07:46:47;11.80;99.90
35593;DHT22;64447;52.140;5.602;2023-11-19T07:49:13;11.70;99.90
35593;DHT22;64447;52.140;5.602;2023-11-19T07:51:39;11.60;99.90
35593;DHT22;64447;52.140;5.602;2023-11-19T07:54:05;11.60;99.90
35593;DHT22;64447;52.140;5.602;2023-11-19T07:56:33;11.50;99.90
35593;DHT22;64447;52.140;5.602;2023-11-19T07:58:59;11.60;99.90
35593;DHT22;64447;52.140;5.602;2023-11-19T08:01:25;11.60;99.90
35593;DHT22;64447;52.140;5.602;2023-11-19T08:03:51;11.70;99.90
35593;DHT22;64447;52.140;5.602;2023-11-19T08:06:16;12.00;99.90
35593;DHT22;64447;52.140;5.602;2023-11-19T08:08:42;11.60;99.90
35593;DHT22;64447;52.140;5.602;2023-11-19T08:11:08;11.60;99.90
35593;DHT22;64447;52.140;5.602;2023-11-19T08:13:33;11.60;99.90
35593;DHT22;64447;52.140;5.602;2023-11-19T08:15:59;11.60;99.90
35593;DHT22;64447;52.140;5.602;2023-11-19T08:18:25;11.50;99.90
35593;DHT22;64447;52.140;5.602;2023-11-19T08:20:50;11.60;99.90
35593;DHT22;64447;52.140;5.602;2023-11-19T08:23:19;11.60;99.90
35593;DHT22;64447;52.140;5.602;2023-11-19T08:25:45;11.70;99.90
35593;DHT22;64447;52.140;5.602;2023-11-19T08:28:10;11.70;99.90
35593;DHT22;64447;52.140;5.602;2023-11-19T08:30:36;11.80;99.90
35593;DHT22;64447;52.140;5.602;2023-11-19T08:33:02;11.70;99.90
35593;DHT22;64447;52.140;5.602;2023-11-19T08:35:31;11.80;99.90
35593;DHT22;64447;52.140;5.602;2023-11-19T08:37:57;11.80;99.90
35593;DHT22;64447;52.140;5.602;2023-11-19T08:40:24;11.80;99.90
35593;DHT22;64447;52.140;5.602;2023-11-19T08:42:53;11.60;99.90
35593;DHT22;64447;52.140;5.602;2023-11-19T08:45:19;11.70;99.90
35593;DHT22;64447;52.140;5.602;2023-11-19T08:47:44;11.80;99.90
35593;DHT22;64447;52.140;5.602;2023-11-19T08:50:10;11.80;99.90
35593;DHT22;64447;52.140;5.602;2023-11-19T08:52:36;11.80;99.90
35593;DHT22;64447;52.140;5.602;2023-11-19T08:55:02;11.90;99.90
35593;DHT22;64447;52.140;5.602;2023-11-19T08:57:28;11.90;99.90
35593;DHT22;64447;52.140;5.602;2023-11-19T08:59:54;11.90;99.90
35593;DHT22;64447;52.140;5.602;2023-11-19T09:02:19;11.90;99.90
35593;DHT22;64447;52.140;5.602;2023-11-19T09:04:45;12.00;99.90
35593;DHT22;64447;52.140;5.602;2023-11-19T09:07:11;12.00;99.90
35593;DHT22;64447;52.140;5.602;2023-11-19T09:09:36;12.00;99.90
35593;DHT22;64447;52.140;5.602;2023-11-19T09:12:02;12.10;99.90
35593;DHT22;64447;52.140;5.602;2023-11-19T09:14:31;12.10;99.90
35593;DHT22;64447;52.140;5.602;2023-11-19T09:16:57;12.20;99.90
35593;DHT22;64447;52.140;5.602;2023-11-19T09:19:23;12.20;99.90
35593;DHT22;64447;52.140;5.602;2023-11-19T09:21:49;12.20;99.90
35593;DHT22;64447;52.140;5.602;2023-11-19T09:24:15;12.20;99.90
35593;DHT22;64447;52.140;5.602;2023-11-19T09:26:41;12.30;99.90
35593;DHT22;64447;52.140;5.602;2023-11-19T09:29:10;12.30;99.90
35593;DHT22;64447;52.140;5.602;2023-11-19T09:31:37;12.30;99.90
35593;DHT22;64447;52.140;5.602;2023-11-19T09:34:03;12.30;99.90
35593;DHT22;64447;52.140;5.602;2023-11-19T09:36:29;12.40;99.90
35593;DHT22;64447;52.140;5.602;2023-11-19T09:38:54;12.40;99.90
35593;DHT22;64447;52.140;5.602;2023-11-19T09:41:20;12.40;99.90
35593;DHT22;64447;52.140;5.602;2023-11-19T09:43:45;12.40;99.90
35593;DHT22;64447;52.140;5.602;2023-11-19T09:46:14;12.40;99.90
35593;DHT22;64447;52.140;5.602;2023-11-19T09:48:41;12.40;99.90
35593;DHT22;64447;52.140;5.602;2023-11-19T09:51:11;12.40;99.90
35593;DHT22;64447;52.140;5.602;2023-11-19T09:53:37;12.50;99.90
35593;DHT22;64447;52.140;5.602;2023-11-19T09:56:04;12.50;99.90
35593;DHT22;64447;52.140;5.602;2023-11-19T09:58:30;12.50;99.90
35593;DHT22;64447;52.140;5.602;2023-11-19T10:01:00;12.60;99.90
35593;DHT22;64447;52.140;5.602;2023-11-19T10:03:35;12.50;99.90
35593;DHT22;64447;52.140;5.602;2023-11-19T10:06:07;12.60;99.90
35593;DHT22;64447;52.140;5.602;2023-11-19T10:08:33;12.60;99.90
35593;DHT22;64447;52.140;5.602;2023-11-19T10:10:58;12.70;99.90
35593;DHT22;64447;52.140;5.602;2023-11-19T10:13:31;12.70;99.90
35593;DHT22;64447;52.140;5.602;2023-11-19T10:15:57;12.70;99.90
35593;DHT22;64447;52.140;5.602;2023-11-19T10:18:26;12.80;99.90
35593;DHT22;64447;52.140;5.602;2023-11-19T10:20:52;12.70;99.90
35593;DHT22;64447;52.140;5.602;2023-11-19T10:23:18;12.80;99.90
35593;DHT22;64447;52.140;5.602;2023-11-19T10:25:43;12.80;99.90
35593;DHT22;64447;52.140;5.602;2023-11-19T10:28:09;12.80;99.90
35593;DHT22;64447;52.140;5.602;2023-11-19T10:30:35;12.80;99.90
35593;DHT22;64447;52.140;5.602;2023-11-19T10:35:33;12.80;99.90
35593;DHT22;64447;52.140;5.602;2023-11-19T10:38:15;12.90;99.90
35593;DHT22;64447;52.140;5.602;2023-11-19T10:40:41;13.10;99.90
35593;DHT22;64447;52.140;5.602;2023-11-19T10:43:07;13.00;99.90
35593;DHT22;64447;52.140;5.602;2023-11-19T10:45:37;13.20;99.90
35593;DHT22;64447;52.140;5.602;2023-11-19T10:48:06;13.20;99.90
35593;DHT22;64447;52.140;5.602;2023-11-19T10:50:37;13.30;99.90
35593;DHT22;64447;52.140;5.602;2023-11-19T10:53:04;13.20;99.90
35593;DHT22;64447;52.140;5.602;2023-11-19T10:55:32;13.30;99.90
35593;DHT22;64447;52.140;5.602;2023-11-19T10:58:04;13.40;99.90
35593;DHT22;64447;52.140;5.602;2023-11-19T11:00:37;13.30;99.90
35593;DHT22;64447;52.140;5.602;2023-11-19T11:03:11;13.30;99.90
35593;DHT22;64447;52.140;5.602;2023-11-19T11:05:38;13.40;99.90
35593;DHT22;64447;52.140;5.602;2023-11-19T11:08:06;13.50;99.90
35593;DHT22;64447;52.140;5.602;2023-11-19T11:10:37;13.50;99.90
35593;DHT22;64447;52.140;5.602;2023-11-19T11:13:05;13.50;99.90
35593;DHT22;64447;52.140;5.602;2023-11-19T11:15:31;13.60;99.90
35593;DHT22;64447;52.140;5.602;2023-11-19T11:18:01;13.50;99.90
35593;DHT22;64447;52.140;5.602;2023-11-19T11:20:33;13.50;99.90
35593;DHT22;64447;52.140;5.602;2023-11-19T11:37:19;13.50;99.90
35593;DHT22;64447;52.140;5.602;2023-11-19T11:39:47;13.60;99.90
35593;DHT22;64447;52.140;5.602;2023-11-19T11:45:19;13.60;99.90
35593;DHT22;64447;52.140;5.602;2023-11-19T11:48:09;13.60;99.90
35593;DHT22;64447;52.140;5.602;2023-11-19T11:50:53;13.60;99.90
35593;DHT22;64447;52.140;5.602;2023-11-19T11:53:21;13.70;99.90
35593;DHT22;64447;52.140;5.602;2023-11-19T11:58:22;13.60;99.90
35593;DHT22;64447;52.140;5.602;2023-11-19T12:00:51;13.60;99.90
35593;DHT22;64447;52.140;5.602;2023-11-19T12:03:20;13.60;99.90
35593;DHT22;64447;52.140;5.602;2023-11-19T12:05:49;13.50;99.90
35593;DHT22;64447;52.140;5.602;2023-11-19T12:08:18;13.50;99.90
35593;DHT22;64447;52.140;5.602;2023-11-19T12:10:56;13.50;99.90
35593;DHT22;64447;52.140;5.602;2023-11-19T12:13:42;13.50;99.90
35593;DHT22;64447;52.140;5.602;2023-11-19T12:16:09;13.50;99.90
35593;DHT22;64447;52.140;5.602;2023-11-19T12:18:38;13.50;99.90
35593;DHT22;64447;52.140;5.602;2023-11-19T12:21:04;13.50;99.90
35593;DHT22;64447;52.140;5.602;2023-11-19T12:23:31;13.50;99.90
35593;DHT22;64447;52.140;5.602;2023-11-19T12:25:58;13.50;99.90
35593;DHT22;64447;52.140;5.602;2023-11-19T12:28:24;13.40;99.90
35593;DHT22;64447;52.140;5.602;2023-11-19T12:30:52;13.50;99.90
35593;DHT22;64447;52.140;5.602;2023-11-19T12:33:19;13.60;99.90
35593;DHT22;64447;52.140;5.602;2023-11-19T12:35:48;13.60;99.90
35593;DHT22;64447;52.140;5.602;2023-11-19T12:38:24;13.70;99.90
35593;DHT22;64447;52.140;5.602;2023-11-19T12:41:06;13.70;99.90
35593;DHT22;64447;52.140;5.602;2023-11-19T12:43:32;13.60;99.90
35593;DHT22;64447;52.140;5.602;2023-11-19T12:46:00;13.50;99.90
35593;DHT22;64447;52.140;5.602;2023-11-19T12:48:25;13.50;99.90
35593;DHT22;64447;52.140;5.602;2023-11-19T12:50:57;13.40;99.90
35593;DHT22;64447;52.140;5.602;2023-11-19T12:53:24;13.40;99.90
35593;DHT22;64447;52.140;5.602;2023-11-19T12:55:54;13.40;99.90
35593;DHT22;64447;52.140;5.602;2023-11-19T12:58:33;13.40;99.90
35593;DHT22;64447;52.140;5.602;2023-11-19T13:01:06;13.40;99.90
35593;DHT22;64447;52.140;5.602;2023-11-19T13:03:34;13.40;99.90
35593;DHT22;64447;52.140;5.602;2023-11-19T13:06:04;13.40;99.90
35593;DHT22;64447;52.140;5.602;2023-11-19T13:08:44;13.40;99.90
35593;DHT22;64447;52.140;5.602;2023-11-19T13:11:12;13.40;99.90
35593;DHT22;64447;52.140;5.602;2023-11-19T13:13:56;13.40;99.90
35593;DHT22;64447;52.140;5.602;2023-11-19T13:16:22;13.40;99.90
35593;DHT22;64447;52.140;5.602;2023-11-19T13:18:48;13.40;99.90
35593;DHT22;64447;52.140;5.602;2023-11-19T13:21:14;13.50;99.90
35593;DHT22;64447;52.140;5.602;2023-11-19T13:23:40;13.40;99.90
35593;DHT22;64447;52.140;5.602;2023-11-19T13:26:05;13.40;99.90
35593;DHT22;64447;52.140;5.602;2023-11-19T13:28:31;13.30;99.90
35593;DHT22;64447;52.140;5.602;2023-11-19T13:30:57;13.30;99.90
35593;DHT22;64447;52.140;5.602;2023-11-19T13:33:23;13.20;99.90
35593;DHT22;64447;52.140;5.602;2023-11-19T13:35:49;13.20;99.90
35593;DHT22;64447;52.140;5.602;2023-11-19T13:38:14;13.10;99.90
35593;DHT22;64447;52.140;5.602;2023-11-19T13:40:40;13.00;99.90
35593;DHT22;64447;52.140;5.602;2023-11-19T13:43:06;13.00;99.90
35593;DHT22;64447;52.140;5.602;2023-11-19T13:45:33;13.00;99.90
35593;DHT22;64447;52.140;5.602;2023-11-19T13:47:58;13.00;99.90
35593;DHT22;64447;52.140;5.602;2023-11-19T13:50:24;12.90;99.90
35593;DHT22;64447;52.140;5.602;2023-11-19T13:52:50;12.90;99.90
35593;DHT22;64447;52.140;5.602;2023-11-19T13:55:18;12.90;99.90
35593;DHT22;64447;52.140;5.602;2023-11-19T13:57:44;13.00;99.90
35593;DHT22;64447;52.140;5.602;2023-11-19T14:00:11;12.90;99.90
35593;DHT22;64447;52.140;5.602;2023-11-19T14:02:48;13.00;99.90
35593;DHT22;64447;52.140;5.602;2023-11-19T14:05:14;13.00;99.90
35593;DHT22;64447;52.140;5.602;2023-11-19T14:07:43;12.90;99.90
35593;DHT22;64447;52.140;5.602;2023-11-19T14:10:09;12.90;99.90
35593;DHT22;64447;52.140;5.602;2023-11-19T14:12:39;12.90;99.90
35593;DHT22;64447;52.140;5.602;2023-11-19T14:15:06;12.90;99.90
35593;DHT22;64447;52.140;5.602;2023-11-19T14:17:33;12.90;99.90
35593;DHT22;64447;52.140;5.602;2023-11-19T14:19:59;12.90;99.90
35593;DHT22;64447;52.140;5.602;2023-11-19T14:22:25;12.90;99.90
35593;DHT22;64447;52.140;5.602;2023-11-19T14:24:51;12.90;99.90
35593;DHT22;64447;52.140;5.602;2023-11-19T14:27:16;12.90;99.90
35593;DHT22;64447;52.140;5.602;2023-11-19T14:29:45;12.90;99.90
35593;DHT22;64447;52.140;5.602;2023-11-19T14:32:11;12.80;99.90
35593;DHT22;64447;52.140;5.602;2023-11-19T14:34:37;12.70;99.90
35593;DHT22;64447;52.140;5.602;2023-11-19T14:37:02;12.80;99.90
35593;DHT22;64447;52.140;5.602;2023-11-19T14:39:28;12.80;99.90
35593;DHT22;64447;52.140;5.602;2023-11-19T14:41:57;12.70;99.90
35593;DHT22;64447;52.140;5.602;2023-11-19T14:44:26;12.70;99.90
35593;DHT22;64447;52.140;5.602;2023-11-19T14:46:52;12.70;99.90
35593;DHT22;64447;52.140;5.602;2023-11-19T14:49:18;12.70;99.90
35593;DHT22;64447;52.140;5.602;2023-11-19T14:51:43;12.70;99.90
35593;DHT22;64447;52.140;5.602;2023-11-19T14:54:09;12.50;99.90
35593;DHT22;64447;52.140;5.602;2023-11-19T14:56:34;12.70;99.90
35593;DHT22;64447;52.140;5.602;2023-11-19T14:59:00;12.70;99.90
35593;DHT22;64447;52.140;5.602;2023-11-19T15:01:26;12.70;99.90
35593;DHT22;64447;52.140;5.602;2023-11-19T15:03:54;12.70;99.90
35593;DHT22;64447;52.140;5.602;2023-11-19T15:06:23;12.80;99.90
35593;DHT22;64447;52.140;5.602;2023-11-19T15:08:49;12.90;99.90
35593;DHT22;64447;52.140;5.602;2023-11-19T15:11:15;12.90;99.90
35593;DHT22;64447;52.140;5.602;2023-11-19T15:13:41;12.80;99.90
35593;DHT22;64447;52.140;5.602;2023-11-19T15:16:07;12.70;99.90
35593;DHT22;64447;52.140;5.602;2023-11-19T15:18:37;12.70;99.90
35593;DHT22;64447;52.140;5.602;2023-11-19T15:21:03;12.80;99.90
35593;DHT22;64447;52.140;5.602;2023-11-19T15:23:29;12.70;99.90
35593;DHT22;64447;52.140;5.602;2023-11-19T15:25:55;12.80;99.90
35593;DHT22;64447;52.140;5.602;2023-11-19T15:28:21;12.80;99.90
35593;DHT22;64447;52.140;5.602;2023-11-19T15:30:47;12.90;99.90
35593;DHT22;64447;52.140;5.602;2023-11-19T15:33:12;12.80;99.90
35593;DHT22;64447;52.140;5.602;2023-11-19T15:35:38;12.80;99.90
35593;DHT22;64447;52.140;5.602;2023-11-19T15:38:04;12.80;99.90
35593;DHT22;64447;52.140;5.602;2023-11-19T15:40:32;12.80;99.90
35593;DHT22;64447;52.140;5.602;2023-11-19T15:42:58;12.80;99.90
35593;DHT22;64447;52.140;5.602;2023-11-19T15:45:24;12.70;99.90
35593;DHT22;64447;52.140;5.602;2023-11-19T15:47:50;12.80;99.90
35593;DHT22;64447;52.140;5.602;2023-11-19T15:50:15;12.80;99.90
35593;DHT22;64447;52.140;5.602;2023-11-19T15:52:41;12.80;99.90